Lobo

Go HERE for most recent data if this page is not up to date.

Jump to table bottom
Date/Time Temp deg F RH % 24 Hr Snow (in) Snow Depth (in) H2O (in)
03/01 23:00 16.6 91 -0.0 49.2 0.00
03/01 22:00 17.1 87 -0.0 49.4 0.00
03/01 21:00 17.4 84 0.0 49.6 0.00
03/01 20:00 18.1 81 -0.0 49.7 0.00
03/01 19:00 19.2 71 -0.0 49.9 0.00
03/01 18:00 20.5 70 -0.0 50.1 0.00
03/01 17:00 21.5 71 -0.0 50.3 0.00
03/01 16:00 21.8 72 9.2 50.4 0.00
03/01 15:00 22.4 75 9.3 50.6 0.00
03/01 14:00 20.4 55 9.6 50.9 0.00
03/01 13:00 19.5 65 9.8 51.1 0.00
03/01 12:00 18.7 63 10.0 51.5 0.01
03/01 11:00 17.3 85 10.1 51.1 0.02
03/01 10:00 17.5 75 10.1 51.6 0.01
03/01 09:00 16.4 78 9.9 51.4 0.03
03/01 08:00 15.9 86 10.4 52.0 0.06
03/01 07:00 16.7 85 9.4 50.7 0.06
03/01 06:00 18.8 88 7.8 48.7 0.08
03/01 05:00 20.8 98 5.2 46.3 0.14
03/01 04:00 21.7 91 1.6 42.5 0.15
03/01 03:00 24.4 87 0.2 41.0 0.07
03/01 02:00 24.8 76 0.0 41.1 0.00
03/01 01:00 25.7 75 0.0 41.2 0.00
03/01 00:00 26.1 72 0.0 41.2 0.00
02/29 23:00 25.7 75 0.0 41.3 0.00
02/29 22:00 25.8 77 0.0 41.3 0.00
02/29 21:00 26.1 71 0.0 41.3 0.00
02/29 20:00 27.0 67 0.0 41.3 0.00
02/29 19:00 26.5 61 0.0 41.4 0.00
02/29 18:00 26.5 65 0.0 41.4 0.00
02/29 17:00 27.4 61 0.0 41.4 0.00
02/29 16:00 26.4 60 0.0 41.5 0.00
02/29 15:00 26.4 68 -0.0 41.5 0.00
02/29 14:00 27.7 68 -0.1 41.6 0.00
02/29 13:00 29.8 67 -0.2 41.5 0.00
02/29 12:00 29.1 62 0.0 41.6 0.00
02/29 11:00 26.8 63 0.0 41.5 0.00
02/29 10:00 23.2 67 0.0 41.5 0.00
02/29 09:00 20.4 71 0.0 41.4 0.00
02/29 08:00 21.2 71 0.0 41.5 0.00
02/29 07:00 22.0 71 0.0 41.5 0.00
02/29 06:00 20.9 70 0.2 41.6 0.00
02/29 05:00 16.1 82 0.1 41.5 0.00
02/29 04:00 16.7 85 0.0 41.6 0.00
02/29 03:00 15.6 84 0.0 41.6 0.00
02/29 02:00 15.3 86 0.0 41.7 0.00
02/29 01:00 15.9 83 -0.0 41.6 0.00
02/29 00:00 18.1 81 -0.0 41.6 0.00
.